September 25, 2022

Time Code Weather Temp. Visibility Ceiling Wind METAR/SPECI
06:00
V
16 °C 10 km+ - 290° 290° 4 kt METAR LPFR 250500Z 29004KT CAVOK 16/12 Q1011
05:30
V
16 °C 10 km+ - 280° 280° 5 kt METAR LPFR 250430Z 28005KT CAVOK 16/12 Q1011
05:00
V
17 °C 10 km+ - 290° 290° 7 kt METAR LPFR 250400Z 29007KT CAVOK 17/12 Q1011
04:30
V
17 °C 10 km+ - 320° 320° 3 kt METAR LPFR 250330Z 32003KT 280V350 CAVOK 17/12 Q1011
04:00
V
17 °C 10 km+ - 280° 280° 5 kt METAR LPFR 250300Z 28005KT CAVOK 17/12 Q1012
03:30
V
17 °C 10 km+ - 330° 330° 3 kt METAR LPFR 250230Z 33003KT 300V010 CAVOK 17/12 Q1012
03:00
V
17 °C 10 km+ - 340° 340° 4 kt METAR LPFR 250200Z 34004KT 310V020 CAVOK 17/12 Q1012
02:30
V
18 °C 10 km+ - 340° 340° 5 kt METAR LPFR 250130Z 34005KT 310V020 CAVOK 18/12 Q1013
02:00
V
18 °C 10 km+ - 320° 320° 4 kt METAR LPFR 250100Z 32004KT CAVOK 18/12 Q1013
01:30
V
18 °C 10 km+ - 320° 320° 5 kt METAR LPFR 250030Z 32005KT CAVOK 18/11 Q1013
01:00
V
18 °C 10 km+ - 330° 330° 5 kt METAR LPFR 250000Z 33005KT CAVOK 18/11 Q1013
00:30
V
19 °C 10 km+ - 330° 330° 7 kt METAR LPFR 242330Z 33007KT CAVOK 19/11 Q1013
00:00
V
19 °C 10 km+ - 340° 340° 8 kt METAR LPFR 242300Z 34008KT CAVOK 19/12 Q1013

September 24, 2022

Time Code Weather Temp. Visibility Ceiling Wind METAR/SPECI
23:30
V
20 °C 10 km+ - 330° 330° 10 kt METAR LPFR 242230Z 33010KT 290V350 CAVOK 20/12 Q1014
23:00
V
21 °C 10 km+ - 340° 340° 10 kt METAR LPFR 242200Z 34010KT 290V360 CAVOK 21/12 Q1013
22:30
V
21 °C 10 km+ - 330° 330° 12 kt METAR LPFR 242130Z 33012KT CAVOK 21/13 Q1013
22:00
V
21 °C 10 km+ - 330° 330° 11 kt METAR LPFR 242100Z 33011KT CAVOK 21/13 Q1013
21:30
V
22 °C 10 km+ - 320° 320° 9 kt METAR LPFR 242030Z 32009KT CAVOK 22/14 Q1013
21:00
V
22 °C 10 km+ - 320° 320° 10 kt METAR LPFR 242000Z 32010KT CAVOK 22/14 Q1013
20:30
V
23 °C 10 km+ - 320° 320° 11 kt METAR LPFR 241930Z 32011KT CAVOK 23/14 Q1013
20:00
V
24 °C 10 km+ - 320° 320° 11 kt METAR LPFR 241900Z 32011KT CAVOK 24/14 Q1012
19:30
V
25 °C 10 km+ - 300° 300° 11 kt METAR LPFR 241830Z 30011KT CAVOK 25/14 Q1012
19:00
V
25 °C 10 km+ - 290° 290° 13 kt METAR LPFR 241800Z 29013KT CAVOK 25/14 Q1012
18:30
V
26 °C 10 km+ - 290° 290° 15 kt METAR LPFR 241730Z 29015KT CAVOK 26/14 Q1012
18:00
V
27 °C 10 km+ - 260° 260° 14 kt METAR LPFR 241700Z 26014KT 240V300 CAVOK 27/14 Q1012
17:30
V
25 °C 10 km+ - 250° 250° 16 kt METAR LPFR 241630Z 25016KT CAVOK 25/17 Q1012
17:00
V
25 °C 10 km+ - 250° 250° 15 kt METAR LPFR 241600Z 25015KT CAVOK 25/17 Q1012
16:30
V
24 °C 10 km+ - 240° 240° 15 kt METAR LPFR 241530Z 24015KT CAVOK 24/18 Q1013
16:00
V
25 °C 10 km+ - 240° 240° 14 kt METAR LPFR 241500Z 24014KT CAVOK 25/17 Q1013
15:30
V
24 °C 10 km+ - 240° 240° 14 kt METAR LPFR 241430Z 24014KT CAVOK 24/17 Q1013
15:00
V
24 °C 10 km+ - 240° 240° 15 kt METAR LPFR 241400Z 24015KT CAVOK 24/16 Q1014
14:30
V
26 °C 10 km+ - 240° 240° 12 kt METAR LPFR 241330Z 24012KT CAVOK 26/16 Q1014
14:00
V
28 °C 10 km+ - 310° 310° 9 kt METAR LPFR 241300Z 31009KT 260V020 CAVOK 28/12 Q1014
13:30
V
27 °C 10 km+ - 310° 310° 10 kt METAR LPFR 241230Z 31010KT 270V350 CAVOK 27/12 Q1015
13:00
V
27 °C 10 km+ - 320° 320° 10 kt METAR LPFR 241200Z 32010KT 290V360 CAVOK 27/11 Q1015
12:30
V
28 °C 10 km+ - 350° 350° 9 kt METAR LPFR 241130Z 35009KT 300V030 CAVOK 28/11 Q1015
12:00
V
26 °C 10 km+ - 360° 360° 7 kt METAR LPFR 241100Z 36007KT 310V060 CAVOK 26/10 Q1015
11:30
V
26 °C 10 km+ - 360° 360° 8 kt METAR LPFR 241030Z 36008KT 300V050 CAVOK 26/11 Q1016
11:00
V
25 °C 10 km+ - 360° 360° 6 kt METAR LPFR 241000Z 36006KT 310V040 CAVOK 25/13 Q1016
10:30
V
24 °C 10 km+ - 010° 010° 6 kt METAR LPFR 240930Z 01006KT 300V060 CAVOK 24/14 Q1016
10:00
V
23 °C 10 km+ - 030° 030° 8 - 18 kt METAR LPFR 240900Z 03008G18KT 310V060 CAVOK 23/14 Q1015
09:30
V
21 °C 10 km+ - 310° 310° 6 kt METAR LPFR 240830Z 31006KT 280V350 CAVOK 21/14 Q1015
09:00
V
21 °C 10 km+ - 310° 310° 5 kt METAR LPFR 240800Z 31005KT 280V350 CAVOK 21/14 Q1015
08:30
V
20 °C 10 km+ - 310° 310° 4 kt METAR LPFR 240730Z 31004KT CAVOK 20/14 Q1015
08:00
V
19 °C 10 km+ - 300° 300° 5 kt METAR LPFR 240700Z 30005KT 270V330 CAVOK 19/14 Q1015
07:30
V
18 °C 10 km+ - 300° 300° 5 kt METAR LPFR 240630Z 30005KT 280V350 CAVOK 18/13 Q1014
07:00
V
19 °C 10 km+ - 290° 290° 5 kt METAR LPFR 240600Z 29005KT 270V330 CAVOK 19/13 Q1014
06:30
V
19 °C 10 km+ - Var Var 2 kt METAR LPFR 240530Z VRB02KT CAVOK 19/13 Q1014
06:00
V
19 °C 10 km+ - 240° 240° 3 kt METAR LPFR 240500Z 24003KT 210V270 CAVOK 19/12 Q1014
05:30
V
18 °C 10 km+ - 250° 250° 4 kt METAR LPFR 240430Z 25004KT CAVOK 18/12 Q1013
05:00
V
21 °C 10 km+ - Var Var 3 kt METAR LPFR 240400Z VRB03KT CAVOK 21/10 Q1013
04:30
V
19 °C 10 km+ - Var 000° 0 kt METAR LPFR 240330Z 00000KT CAVOK 19/14 Q1014
04:00
V
19 °C 10 km+ - 270° 270° 3 kt METAR LPFR 240300Z 27003KT 240V310 CAVOK 19/13 Q1014
03:30
V
20 °C 10 km+ - Var 000° 0 kt METAR LPFR 240230Z 00000KT CAVOK 20/13 Q1014
03:00
V
21 °C 10 km+ - 310° 310° 3 kt METAR LPFR 240200Z 31003KT 240V350 CAVOK 21/12 Q1014
02:30
V
21 °C 10 km+ - 330° 330° 3 kt METAR LPFR 240130Z 33003KT CAVOK 21/13 Q1014
02:00
V
20 °C 10 km+ - Var Var 2 kt METAR LPFR 240100Z VRB02KT CAVOK 20/13 Q1015
01:30
V
20 °C 10 km+ - 320° 320° 3 kt METAR LPFR 240030Z 32003KT 290V350 CAVOK 20/13 Q1015
01:00
V
21 °C 10 km+ - 340° 340° 4 kt METAR LPFR 240000Z 34004KT CAVOK 21/13 Q1015
00:30
V
21 °C 10 km+ - 340° 340° 4 kt METAR LPFR 232330Z 34004KT CAVOK 21/12 Q1015
00:00
V
21 °C 10 km+ - 300° 300° 4 kt METAR LPFR 232300Z 30004KT CAVOK 21/14 Q1015

September 23, 2022

Time Code Weather Temp. Visibility Ceiling Wind METAR/SPECI
23:30
V
22 °C 10 km+ - 330° 330° 4 kt METAR LPFR 232230Z 33004KT CAVOK 22/12 Q1015
23:00
V
22 °C 10 km+ - 350° 350° 4 kt METAR LPFR 232200Z 35004KT 320V020 CAVOK 22/14 Q1015
22:30
V
22 °C 10 km+ - 330° 330° 3 kt METAR LPFR 232130Z 33003KT 290V010 CAVOK 22/15 Q1015
22:00
V
22 °C 10 km+ - 320° 320° 3 kt METAR LPFR 232100Z 32003KT 280V010 CAVOK 22/18 Q1015
21:30
V
21 °C 10 km+ - 260° 260° 4 kt METAR LPFR 232030Z 26004KT CAVOK 21/19 Q1015
21:00
V
21 °C 10 km+ - 250° 250° 3 kt METAR LPFR 232000Z 25003KT CAVOK 21/18 Q1015
20:30
V
21 °C 10 km+ - 220° 220° 4 kt METAR LPFR 231930Z 22004KT CAVOK 21/18 Q1015
20:00
V
22 °C 10 km+ - 230° 230° 3 kt METAR LPFR 231900Z 23003KT 210V270 CAVOK 22/18 Q1015
19:30
V
22 °C 10 km+ - 240° 240° 4 kt METAR LPFR 231830Z 24004KT CAVOK 22/17 Q1015
19:00
V
23 °C 10 km+ - 260° 260° 3 kt METAR LPFR 231800Z 26003KT CAVOK 23/17 Q1015
18:30
V
23 °C 10 km+ - 250° 250° 5 kt METAR LPFR 231730Z 25005KT 210V270 9999 FEW040 23/18 Q1015
18:00
V
23 °C 10 km+ - 240° 240° 6 kt METAR LPFR 231700Z 24006KT 9999 FEW040 23/18 Q1015
17:30
V
24 °C 10 km+ - 240° 240° 7 kt METAR LPFR 231630Z 24007KT 9999 FEW040 24/16 Q1015
17:00
V
24 °C 10 km+ - 230° 230° 7 kt METAR LPFR 231600Z 23007KT 9999 FEW040 24/15 Q1015
16:30
V
24 °C 10 km+ - 220° 220° 7 kt METAR LPFR 231530Z 22007KT 200V260 9999 FEW030 24/16 Q1015
16:00
V
24 °C 10 km+ - 220° 220° 6 kt METAR LPFR 231500Z 22006KT 190V260 CAVOK 24/16 Q1016
15:30
V
23 °C 10 km+ - 230° 230° 6 kt METAR LPFR 231430Z 23006KT 190V260 9999 FEW025 23/16 Q1016
15:00
V
24 °C 10 km+ - 230° 230° 7 kt METAR LPFR 231400Z 23007KT 200V260 9999 FEW025 24/17 Q1016
14:30
V
24 °C 10 km+ - 220° 220° 7 kt METAR LPFR 231330Z 22007KT 9999 FEW025 24/18 Q1017
14:00
V
24 °C 10 km+ - 180° 180° 7 kt METAR LPFR 231300Z 18007KT 150V220 9999 FEW025 24/20 Q1017
13:30
V
24 °C 10 km+ - 170° 170° 8 kt METAR LPFR 231230Z 17008KT 9999 FEW025 24/20 Q1017
13:00
V
25 °C 10 km+ - 170° 170° 8 kt METAR LPFR 231200Z 17008KT 9999 FEW025 25/20 Q1017
12:30
V
26 °C 10 km+ - 170° 170° 7 kt METAR LPFR 231130Z 17007KT CAVOK 26/19 Q1017
12:00
V
24 °C 10 km+ - 160° 160° 7 kt METAR LPFR 231100Z 16007KT CAVOK 24/18 Q1018
11:30
V
25 °C 10 km+ - 150° 150° 8 kt METAR LPFR 231030Z 15008KT CAVOK 25/19 Q1018
11:00
V
25 °C 10 km+ - 150° 150° 6 kt METAR LPFR 231000Z 15006KT CAVOK 25/19 Q1018
10:30
V
25 °C 10 km+ - 130° 130° 6 kt METAR LPFR 230930Z 13006KT 100V160 CAVOK 25/17 Q1018
10:00
V
24 °C 10 km+ - 130° 130° 5 kt METAR LPFR 230900Z 13005KT CAVOK 24/18 Q1017
09:30
V
25 °C 10 km+ - Var Var 2 kt METAR LPFR 230830Z VRB02KT CAVOK 25/17 Q1017
09:00
V
23 °C 10 km+ - Var Var 2 kt METAR LPFR 230800Z VRB02KT CAVOK 23/17 Q1017
08:30
V
21 °C 10 km+ - 010° 010° 5 kt METAR LPFR 230730Z 01005KT 320V030 CAVOK 21/16 Q1017
08:00
V
19 °C 10 km+ - 020° 020° 6 kt METAR LPFR 230700Z 02006KT CAVOK 19/16 Q1016
07:30
V
20 °C 10 km+ - 020° 020° 6 kt METAR LPFR 230630Z 02006KT CAVOK 20/16 Q1016
07:00
V
19 °C 10 km+ - 360° 360° 5 kt METAR LPFR 230600Z 36005KT 310V040 CAVOK 19/16 Q1016
06:30
V
19 °C 10 km+ - 040° 040° 3 kt METAR LPFR 230530Z 04003KT CAVOK 19/16 Q1016
06:00
V
19 °C 10 km+ - 340° 340° 4 kt METAR LPFR 230500Z 34004KT CAVOK 19/16 Q1016
05:30
V
20 °C 10 km+ - 290° 290° 3 kt METAR LPFR 230430Z 29003KT CAVOK 20/16 Q1016
05:00
V
19 °C 10 km+ - Var 000° 0 kt METAR LPFR 230400Z 00000KT CAVOK 19/16 Q1016
04:30
V
20 °C 10 km+ - 020° 020° 3 kt METAR LPFR 230330Z 02003KT 330V030 CAVOK 20/17 Q1016
04:00
V
20 °C 10 km+ - Var Var 2 kt METAR LPFR 230300Z VRB02KT CAVOK 20/16 Q1016
03:30
V
20 °C 10 km+ - Var Var 2 kt METAR LPFR 230230Z VRB02KT CAVOK 20/17 Q1016
Older data

We and third parties follow your internet behavior on our website with cookies. If you continue, we assume you agree with our cookie policy. Learn more